Time;durP1;ratioP1;P1;durP2;ratioP2;P2;SDS_P1;SDS_P2;PMS_P1;PMS_P2;Temp;Humidity;BMP_temperature;BMP_pressure;BME280_temperature;BME280_humidity;BME280_pressure;Samples;Min_cycle;Max_cycle;Signal;HPM_P1;HPM_P2
2022/05/22 00:01:51;;;;;;;;;;;13.10;99.90;;;;;;5066113;28;19932;-67
2022/05/22 00:04:17;;;;;;;;;;;13.10;99.90;;;;;;5073381;28;20419;-68
2022/05/22 00:06:46;;;;;;;;;;;13.10;99.90;;;;;;5073711;28;20390;-68
2022/05/22 00:09:12;;;;;;;;;;;13.10;99.90;;;;;;5090282;28;19928;-67
2022/05/22 00:11:39;;;;;;;;;;;13.20;99.90;;;;;;5073762;28;20334;-67
2022/05/22 00:14:06;;;;;;;;;;;13.00;99.90;;;;;;5073166;28;19924;-67
2022/05/22 00:16:41;;;;;;;;;;;12.90;99.90;;;;;;5072861;28;19925;-67
2022/05/22 00:19:12;;;;;;;;;;;12.80;99.90;;;;;;5072587;28;19974;-67
2022/05/22 00:21:41;;;;;;;;;;;12.80;99.90;;;;;;5073594;28;20299;-66
2022/05/22 00:24:11;;;;;;;;;;;12.70;99.90;;;;;;5072992;28;19924;-68
2022/05/22 00:26:37;;;;;;;;;;;12.80;99.90;;;;;;5090359;28;20463;-67
2022/05/22 00:29:04;;;;;;;;;;;12.60;99.90;;;;;;5073077;28;19928;-66
2022/05/22 00:31:31;;;;;;;;;;;12.50;99.90;;;;;;5073411;28;19924;-68
2022/05/22 00:33:58;;;;;;;;;;;12.50;99.90;;;;;;5073110;28;19928;-67
2022/05/22 00:36:25;;;;;;;;;;;12.40;99.90;;;;;;5073056;28;19932;-68
2022/05/22 00:38:52;;;;;;;;;;;12.30;99.90;;;;;;5072944;28;19928;-67
2022/05/22 00:41:20;;;;;;;;;;;12.30;99.90;;;;;;5073326;28;20272;-67
2022/05/22 00:43:48;;;;;;;;;;;12.30;99.90;;;;;;5072619;28;19925;-66
2022/05/22 00:46:16;;;;;;;;;;;12.20;99.90;;;;;;5072771;28;19931;-68
2022/05/22 00:48:45;;;;;;;;;;;12.20;99.90;;;;;;5089967;28;19925;-67
2022/05/22 00:51:14;;;;;;;;;;;12.20;99.90;;;;;;5072848;28;19931;-68
2022/05/22 00:53:43;;;;;;;;;;;12.10;99.90;;;;;;5089523;28;19972;-66
2022/05/22 00:56:11;;;;;;;;;;;12.10;99.90;;;;;;5072776;28;19954;-67
2022/05/22 00:58:39;;;;;;;;;;;12.10;99.90;;;;;;5073080;28;19928;-68
2022/05/22 01:01:06;;;;;;;;;;;12.10;99.90;;;;;;5072553;28;19925;-67
2022/05/22 01:03:33;;;;;;;;;;;12.20;99.90;;;;;;5089066;28;19924;-66
2022/05/22 01:06:02;;;;;;;;;;;12.20;99.90;;;;;;5072780;28;19924;-67
2022/05/22 01:08:30;;;;;;;;;;;12.10;99.90;;;;;;5072432;28;19929;-67
2022/05/22 01:10:59;;;;;;;;;;;12.10;99.90;;;;;;5072257;28;19925;-67
2022/05/22 01:13:28;;;;;;;;;;;12.10;99.90;;;;;;5088263;28;19944;-67
2022/05/22 01:15:56;;;;;;;;;;;12.10;99.90;;;;;;5089488;28;20334;-67
2022/05/22 01:18:23;;;;;;;;;;;12.10;99.90;;;;;;5072424;28;19925;-67
2022/05/22 01:20:52;;;;;;;;;;;12.00;99.90;;;;;;5072399;28;19960;-67
2022/05/22 01:23:23;;;;;;;;;;;12.00;99.90;;;;;;5089202;28;20350;-67
2022/05/22 01:25:50;;;;;;;;;;;12.00;99.90;;;;;;5072246;28;19952;-68
2022/05/22 01:28:18;;;;;;;;;;;12.00;99.90;;;;;;5088971;28;19924;-67
2022/05/22 01:30:45;;;;;;;;;;;12.00;99.90;;;;;;5072106;28;19924;-67
2022/05/22 01:33:12;;;;;;;;;;;12.00;99.90;;;;;;5072060;28;20425;-67
2022/05/22 01:35:40;;;;;;;;;;;11.90;99.90;;;;;;5072007;28;19925;-67
2022/05/22 01:38:08;;;;;;;;;;;11.90;99.90;;;;;;5072001;28;19924;-67
2022/05/22 01:40:42;;;;;;;;;;;11.80;99.90;;;;;;5072025;28;20403;-67
2022/05/22 01:43:10;;;;;;;;;;;11.80;99.90;;;;;;5072122;28;19929;-66
2022/05/22 01:45:38;;;;;;;;;;;11.70;99.90;;;;;;5072112;28;19929;-67
2022/05/22 01:48:05;;;;;;;;;;;11.70;99.90;;;;;;5072078;28;19971;-68
2022/05/22 01:50:36;;;;;;;;;;;11.70;99.90;;;;;;5071788;28;19932;-66
2022/05/22 01:53:04;;;;;;;;;;;11.60;99.90;;;;;;5071847;28;19931;-67
2022/05/22 01:55:30;;;;;;;;;;;11.50;99.90;;;;;;5071514;28;19924;-68
2022/05/22 01:58:00;;;;;;;;;;;11.50;99.90;;;;;;5071830;28;19974;-67
2022/05/22 02:00:30;;;;;;;;;;;11.50;99.90;;;;;;5088332;28;19931;-66
2022/05/22 02:02:58;;;;;;;;;;;11.50;99.90;;;;;;5071675;28;19986;-66
2022/05/22 02:05:33;;;;;;;;;;;11.50;99.90;;;;;;5071493;28;19924;-67
2022/05/22 02:10:46;;;;;;;;;;;11.40;99.90;;;;;;5088010;28;19921;-66
2022/05/22 02:13:18;;;;;;;;;;;11.30;99.90;;;;;;5071442;28;19931;-67
2022/05/22 02:15:45;;;;;;;;;;;11.20;99.90;;;;;;5071338;28;19931;-67
2022/05/22 02:18:12;;;;;;;;;;;11.20;99.90;;;;;;5071312;28;19967;-67
2022/05/22 02:20:40;;;;;;;;;;;11.20;99.90;;;;;;5070834;28;20391;-66
2022/05/22 02:23:07;;;;;;;;;;;11.30;99.90;;;;;;5070994;28;19970;-66
2022/05/22 02:25:37;;;;;;;;;;;11.30;99.90;;;;;;5071045;28;19924;-67
2022/05/22 02:28:08;;;;;;;;;;;11.30;99.90;;;;;;5071296;28;20395;-66
2022/05/22 02:30:39;;;;;;;;;;;11.10;99.90;;;;;;5071122;28;20027;-67
2022/05/22 02:33:06;;;;;;;;;;;11.10;99.90;;;;;;5071221;28;19932;-67
2022/05/22 02:35:41;;;;;;;;;;;11.10;99.90;;;;;;5087695;28;19925;-66
2022/05/22 02:38:16;;;;;;;;;;;11.00;99.90;;;;;;5070681;28;19924;-66
2022/05/22 02:40:47;;;;;;;;;;;10.90;99.90;;;;;;5070680;28;20379;-67
2022/05/22 02:43:14;;;;;;;;;;;;;;;;;;5087839;28;19924;-67
2022/05/22 02:45:45;;;;;;;;;;;10.90;99.90;;;;;;5087582;28;20019;-66
2022/05/22 02:48:15;;;;;;;;;;;10.90;99.90;;;;;;5070935;28;19931;-67
2022/05/22 02:50:54;;;;;;;;;;;10.80;99.90;;;;;;5070586;28;19924;-67
2022/05/22 02:53:21;;;;;;;;;;;10.80;99.90;;;;;;5070513;28;20403;-67
2022/05/22 02:56:15;;;;;;;;;;;10.70;99.90;;;;;;5071721;28;19936;-66
2022/05/22 02:58:58;;;;;;;;;;;10.60;99.90;;;;;;5070688;28;20018;-66
2022/05/22 03:01:26;;;;;;;;;;;10.50;99.90;;;;;;5070545;28;19955;-68
2022/05/22 03:03:53;;;;;;;;;;;10.60;99.90;;;;;;5070384;28;19971;-67
2022/05/22 03:09:04;;;;;;;;;;;10.60;99.90;;;;;;5087088;28;19979;-67
2022/05/22 03:11:31;;;;;;;;;;;10.50;99.90;;;;;;5087237;28;19924;-67
2022/05/22 03:13:59;;;;;;;;;;;10.50;99.90;;;;;;5070156;28;19931;-67
2022/05/22 03:16:27;;;;;;;;;;;10.60;99.90;;;;;;5087134;28;19928;-67
2022/05/22 03:19:07;;;;;;;;;;;10.70;99.90;;;;;;5070103;28;20410;-67
2022/05/22 03:21:34;;;;;;;;;;;10.60;99.90;;;;;;5070657;28;19924;-67
2022/05/22 03:24:02;;;;;;;;;;;10.50;99.90;;;;;;5070067;28;19925;-67
2022/05/22 03:26:29;;;;;;;;;;;10.50;99.90;;;;;;5069945;28;19935;-67
2022/05/22 03:28:56;;;;;;;;;;;10.40;99.90;;;;;;5070052;28;19924;-66
2022/05/22 03:31:23;;;;;;;;;;;10.40;99.90;;;;;;5070495;28;19924;-67
2022/05/22 03:33:52;;;;;;;;;;;10.40;99.90;;;;;;5069744;28;19924;-67
2022/05/22 03:36:19;;;;;;;;;;;10.50;99.90;;;;;;5086380;28;19933;-67
2022/05/22 03:38:46;;;;;;;;;;;10.50;99.90;;;;;;5070129;28;20272;-67
2022/05/22 03:41:13;;;;;;;;;;;10.40;99.90;;;;;;5069897;28;19931;-67
2022/05/22 03:43:40;;;;;;;;;;;10.40;99.90;;;;;;5069615;28;19925;-66
2022/05/22 03:46:26;;;;;;;;;;;10.40;99.90;;;;;;5069829;28;19935;-66
2022/05/22 03:48:54;;;;;;;;;;;10.30;99.90;;;;;;5069746;28;19924;-67
2022/05/22 03:51:26;;;;;;;;;;;10.30;99.90;;;;;;5069978;28;19931;-67
2022/05/22 03:53:53;;;;;;;;;;;10.20;99.90;;;;;;5069645;28;19928;-67
2022/05/22 03:56:27;;;;;;;;;;;10.20;99.90;;;;;;5069816;28;20433;-68
2022/05/22 03:58:54;;;;;;;;;;;10.10;99.90;;;;;;5069885;28;19924;-67
2022/05/22 04:01:21;;;;;;;;;;;10.20;99.90;;;;;;5069923;28;19964;-67
2022/05/22 04:03:57;;;;;;;;;;;10.20;99.90;;;;;;5069611;28;20024;-67
2022/05/22 04:06:25;;;;;;;;;;;10.20;99.90;;;;;;5086568;28;19925;-67
2022/05/22 04:08:52;;;;;;;;;;;10.40;99.90;;;;;;5069545;28;19928;-66
2022/05/22 04:11:26;;;;;;;;;;;10.40;99.90;;;;;;5069758;28;20386;-66
2022/05/22 04:13:58;;;;;;;;;;;10.40;99.90;;;;;;5069640;28;20005;-67
2022/05/22 04:16:25;;;;;;;;;;;10.40;99.90;;;;;;5069499;28;19931;-66
2022/05/22 04:18:51;;;;;;;;;;;10.40;99.90;;;;;;5069340;28;19971;-66
2022/05/22 04:21:20;;;;;;;;;;;10.50;99.90;;;;;;5069828;28;19925;-68
2022/05/22 04:26:52;;;;;;;;;;;10.50;99.90;;;;;;5086240;28;19925;-65
2022/05/22 04:29:19;;;;;;;;;;;10.50;99.90;;;;;;5069462;28;20019;-67
2022/05/22 04:31:46;;;;;;;;;;;10.50;99.90;;;;;;5069506;28;20308;-67
2022/05/22 04:34:21;;;;;;;;;;;10.60;99.90;;;;;;5069424;28;19929;-66
2022/05/22 04:36:51;;;;;;;;;;;10.50;99.90;;;;;;5069284;28;19929;-66
2022/05/22 04:39:33;;;;;;;;;;;10.50;99.90;;;;;;5086500;28;19971;-67
2022/05/22 04:42:05;;;;;;;;;;;10.60;99.90;;;;;;5069356;28;19931;-67
2022/05/22 04:44:32;;;;;;;;;;;10.60;99.90;;;;;;5069220;28;19924;-66
2022/05/22 04:47:24;;;;;;;;;;;10.70;99.90;;;;;;5071898;28;19932;-67
2022/05/22 04:50:10;;;;;;;;;;;10.80;99.90;;;;;;5074457;28;19931;-67
2022/05/22 04:52:58;;;;;;;;;;;10.90;99.90;;;;;;5074287;28;20035;-66
2022/05/22 04:55:25;;;;;;;;;;;11.00;99.90;;;;;;5089781;28;19978;-67
2022/05/22 04:57:52;;;;;;;;;;;11.10;99.90;;;;;;5072842;28;19925;-67
2022/05/22 05:00:19;;;;;;;;;;;11.10;99.90;;;;;;5072451;28;19932;-66
2022/05/22 05:02:59;;;;;;;;;;;11.10;99.90;;;;;;5068280;28;19924;-66
2022/05/22 05:05:27;;;;;;;;;;;11.20;99.90;;;;;;5072187;28;19929;-67
2022/05/22 05:07:55;;;;;;;;;;;11.20;99.90;;;;;;5072402;28;20316;-67
2022/05/22 05:10:46;;;;;;;;;;;11.30;99.90;;;;;;5063090;28;19939;-67
2022/05/22 05:13:28;;;;;;;;;;;11.30;99.90;;;;;;5072234;28;19925;-66
2022/05/22 05:15:58;;;;;;;;;;;11.40;99.90;;;;;;5072610;28;19978;-67
2022/05/22 05:18:28;;;;;;;;;;;11.50;99.90;;;;;;5072344;28;19925;-67
2022/05/22 05:20:58;;;;;;;;;;;11.60;99.90;;;;;;5072024;28;19924;-66
2022/05/22 05:23:25;;;;;;;;;;;11.70;99.90;;;;;;5089040;28;19929;-66
2022/05/22 05:26:05;;;;;;;;;;;11.70;99.90;;;;;;5072011;28;20386;-66
2022/05/22 05:28:32;;;;;;;;;;;11.80;99.90;;;;;;5089174;28;19925;-67
2022/05/22 05:30:59;;;;;;;;;;;11.80;99.90;;;;;;5088972;28;19940;-67
2022/05/22 05:33:26;;;;;;;;;;;11.90;99.90;;;;;;5088643;28;19928;-67
2022/05/22 05:36:16;;;;;;;;;;;12.00;99.90;;;;;;5069746;28;19931;-67
2022/05/22 05:39:05;;;;;;;;;;;12.00;99.90;;;;;;5071682;28;20019;-68
2022/05/22 05:41:59;;;;;;;;;;;12.10;99.90;;;;;;5057172;28;19936;-66
2022/05/22 05:44:33;;;;;;;;;;;12.30;99.90;;;;;;5071774;28;19974;-67
2022/05/22 05:47:26;;;;;;;;;;;12.40;99.90;;;;;;5071033;28;19931;-67
2022/05/22 05:50:00;;;;;;;;;;;12.50;99.90;;;;;;5071776;28;20471;-67
2022/05/22 05:52:47;;;;;;;;;;;12.70;99.90;;;;;;5065512;28;20015;-68
2022/05/22 05:55:34;;;;;;;;;;;12.80;99.90;;;;;;5072834;28;20011;-67
2022/05/22 05:58:31;;;;;;;;;;;12.90;99.90;;;;;;5071894;28;20017;-67
2022/05/22 06:01:10;;;;;;;;;;;13.00;99.90;;;;;;5071837;28;19960;-67
2022/05/22 06:03:37;;;;;;;;;;;12.90;99.90;;;;;;5071641;28;19931;-66
2022/05/22 06:06:06;;;;;;;;;;;13.00;99.90;;;;;;5071565;28;19931;-67
2022/05/22 06:08:35;;;;;;;;;;;13.10;99.90;;;;;;5071544;28;20303;-67
2022/05/22 06:11:30;;;;;;;;;;;13.10;99.90;;;;;;5071431;28;19924;-67
2022/05/22 06:14:04;;;;;;;;;;;13.30;99.90;;;;;;5071196;28;20457;-67
2022/05/22 06:16:31;;;;;;;;;;;13.30;99.90;;;;;;5071424;28;19964;-67
2022/05/22 06:19:02;;;;;;;;;;;13.40;99.90;;;;;;5070584;28;19982;-67
2022/05/22 06:21:29;;;;;;;;;;;13.50;99.90;;;;;;5071347;28;20023;-67
2022/05/22 06:23:56;;;;;;;;;;;13.70;99.90;;;;;;5070154;28;19928;-66
2022/05/22 06:26:56;;;;;;;;;;;13.80;99.90;;;;;;5049408;28;20331;-68
2022/05/22 06:29:47;;;;;;;;;;;13.90;99.90;;;;;;5070795;28;19939;-67
2022/05/22 06:32:32;;;;;;;;;;;14.20;99.90;;;;;;5072572;28;19932;-67
2022/05/22 06:35:25;;;;;;;;;;;14.20;99.90;;;;;;5048327;28;19970;-67
2022/05/22 06:39:49;;;;;;;;;;;14.40;99.90;;;;;;5072421;28;20403;-67
2022/05/22 06:41:13;;;;;;;;;;;14.60;99.90;;;;;;5070851;28;19925;-66
2022/05/22 06:44:05;;;;;;;;;;;14.80;99.90;;;;;;5070806;28;19924;-67
2022/05/22 06:46:53;;;;;;;;;;;14.90;99.90;;;;;;5071770;28;20414;-67
2022/05/22 06:49:44;;;;;;;;;;;15.00;99.90;;;;;;5070750;28;19925;-67
2022/05/22 06:52:25;;;;;;;;;;;15.00;99.90;;;;;;5071257;28;20206;-67
2022/05/22 06:54:57;;;;;;;;;;;15.10;99.90;;;;;;5070429;28;20310;-67
2022/05/22 06:57:43;;;;;;;;;;;15.20;99.90;;;;;;5071827;28;19935;-68
2022/05/22 07:00:37;;;;;;;;;;;15.30;99.90;;;;;;5047689;28;20409;-67
2022/05/22 07:03:23;;;;;;;;;;;15.40;99.90;;;;;;5072208;28;19932;-67
2022/05/22 07:05:59;;;;;;;;;;;15.50;99.90;;;;;;5070462;28;19935;-67
2022/05/22 07:08:49;;;;;;;;;;;15.60;99.90;;;;;;5070685;28;19925;-67
2022/05/22 07:11:40;;;;;;;;;;;15.60;99.90;;;;;;5072134;28;19931;-68
2022/05/22 07:14:33;;;;;;;;;;;15.70;99.90;;;;;;5087475;28;20014;-67
2022/05/22 07:17:10;;;;;;;;;;;15.80;99.90;;;;;;5072076;28;20011;-67
2022/05/22 07:19:53;;;;;;;;;;;15.90;99.90;;;;;;5070267;28;20408;-67
2022/05/22 07:22:38;;;;;;;;;;;16.20;99.90;;;;;;5072019;28;19930;-67
2022/05/22 07:25:22;;;;;;;;;;;16.30;99.90;;;;;;5070098;28;19928;-67
2022/05/22 07:27:57;;;;;;;;;;;16.40;99.90;;;;;;5071427;28;19924;-67
2022/05/22 07:30:41;;;;;;;;;;;16.60;99.90;;;;;;5069970;28;19924;-67
2022/05/22 07:33:26;;;;;;;;;;;16.80;99.90;;;;;;5071453;28;19931;-67
2022/05/22 07:36:02;;;;;;;;;;;17.00;99.90;;;;;;5086945;28;19971;-68
2022/05/22 07:38:32;;;;;;;;;;;17.30;99.90;;;;;;5071403;28;20360;-67
2022/05/22 07:41:28;;;;;;;;;;;17.50;99.90;;;;;;5069834;28;19929;-66
2022/05/22 07:44:30;;;;;;;;;;;17.60;99.90;;;;;;5065186;28;19931;-68
2022/05/22 07:47:23;;;;;;;;;;;17.70;99.90;;;;;;5069741;28;19959;-67
2022/05/22 07:50:17;;;;;;;;;;;17.80;99.90;;;;;;5069996;28;20410;-67
2022/05/22 07:53:04;;;;;;;;;;;17.90;99.90;;;;;;5071647;28;19940;-68
2022/05/22 07:55:40;;;;;;;;;;;17.90;99.90;;;;;;5071037;28;19924;-68
2022/05/22 07:58:27;;;;;;;;;;;17.90;99.90;;;;;;5070568;28;20411;-67
2022/05/22 08:01:02;;;;;;;;;;;18.10;99.90;;;;;;5069499;28;19924;-67
2022/05/22 08:03:47;;;;;;;;;;;18.20;99.90;;;;;;5070671;28;19931;-65
2022/05/22 08:06:34;;;;;;;;;;;18.10;99.90;;;;;;5070661;28;20031;-65
2022/05/22 08:09:11;;;;;;;;;;;18.30;99.90;;;;;;5069605;28;20015;-64
2022/05/22 08:11:38;;;;;;;;;;;18.40;99.90;;;;;;5069835;28;19964;-64
2022/05/22 08:14:09;;;;;;;;;;;18.40;99.90;;;;;;5069521;28;20362;-65
2022/05/22 08:16:40;;;;;;;;;;;18.50;99.90;;;;;;5069583;28;19930;-64
2022/05/22 08:19:15;;;;;;;;;;;18.40;99.90;;;;;;5069476;28;19932;-67
2022/05/22 08:22:02;;;;;;;;;;;18.60;99.90;;;;;;5065626;28;19935;-67
2022/05/22 08:24:50;;;;;;;;;;;18.60;99.90;;;;;;5074635;28;19936;-65
2022/05/22 08:27:20;;;;;;;;;;;18.60;99.90;;;;;;5073463;28;19934;-64
2022/05/22 08:29:46;;;;;;;;;;;18.60;99.90;;;;;;5073215;28;19925;-67
2022/05/22 08:32:13;;;;;;;;;;;18.60;99.90;;;;;;5073366;28;19925;-67
2022/05/22 08:34:40;;;;;;;;;;;18.70;99.90;;;;;;5072937;28;19925;-67
2022/05/22 08:37:07;;;;;;;;;;;18.70;99.90;;;;;;5072962;28;20330;-68
2022/05/22 08:39:34;;;;;;;;;;;18.70;99.90;;;;;;5073087;28;19924;-67
2022/05/22 08:42:08;;;;;;;;;;;18.70;99.90;;;;;;5073271;28;19931;-67
2022/05/22 08:44:34;;;;;;;;;;;18.80;99.90;;;;;;5072730;28;19932;-67
2022/05/22 08:47:06;;;;;;;;;;;18.90;99.90;;;;;;5072941;28;19924;-67
2022/05/22 08:49:38;;;;;;;;;;;19.00;99.90;;;;;;5072719;28;19929;-67
2022/05/22 08:52:08;;;;;;;;;;;19.10;99.90;;;;;;5073084;28;19936;-64
2022/05/22 08:54:37;;;;;;;;;;;19.20;99.90;;;;;;5073152;28;19924;-67
2022/05/22 08:59:56;;;;;;;;;;;19.20;99.90;;;;;;5072643;28;19932;-67
2022/05/22 09:02:26;;;;;;;;;;;19.20;99.90;;;;;;5072615;28;19936;-65
2022/05/22 09:04:57;;;;;;;;;;;19.20;99.90;;;;;;5072614;28;19928;-65
2022/05/22 09:07:25;;;;;;;;;;;19.30;99.90;;;;;;5072471;28;19986;-65
2022/05/22 09:09:56;;;;;;;;;;;19.50;99.90;;;;;;5072170;28;19978;-65
2022/05/22 09:12:50;;;;;;;;;;;19.50;99.90;;;;;;5072731;28;19974;-65
2022/05/22 09:15:20;;;;;;;;;;;19.50;99.90;;;;;;5036675;28;19925;-67
2022/05/22 09:17:51;;;;;;;;;;;19.50;99.90;;;;;;5072932;28;19963;-67
2022/05/22 09:20:19;;;;;;;;;;;19.60;99.90;;;;;;5089057;28;20353;-67
2022/05/22 09:22:56;;;;;;;;;;;19.70;99.90;;;;;;5072353;28;20449;-68
2022/05/22 09:25:27;;;;;;;;;;;19.70;99.90;;;;;;5072149;28;19928;-67
2022/05/22 09:27:57;;;;;;;;;;;19.80;99.90;;;;;;5072184;28;20343;-69
2022/05/22 09:30:29;;;;;;;;;;;19.50;99.90;;;;;;5072010;28;19924;-67
2022/05/22 09:33:01;;;;;;;;;;;19.60;99.90;;;;;;5071016;28;19932;-65
2022/05/22 09:35:35;;;;;;;;;;;19.70;99.90;;;;;;5088817;28;19930;-65
2022/05/22 09:38:08;;;;;;;;;;;19.90;99.90;;;;;;5072158;28;19928;-65
2022/05/22 09:40:44;;;;;;;;;;;20.10;99.90;;;;;;5072136;28;19932;-65
2022/05/22 09:43:27;;;;;;;;;;;20.30;99.90;;;;;;5071995;28;19932;-65
2022/05/22 09:46:02;;;;;;;;;;;20.20;99.90;;;;;;5088833;28;19932;-65
2022/05/22 09:48:51;;;;;;;;;;;20.30;99.90;;;;;;5071820;28;19924;-65
2022/05/22 09:51:21;;;;;;;;;;;20.30;99.90;;;;;;5072245;28;20012;-65
2022/05/22 09:53:54;;;;;;;;;;;20.30;99.90;;;;;;5071644;28;19924;-65
2022/05/22 09:56:27;;;;;;;;;;;20.30;99.90;;;;;;5088637;28;20346;-64
2022/05/22 09:59:01;;;;;;;;;;;20.20;99.90;;;;;;5088236;28;19925;-65
2022/05/22 10:01:32;;;;;;;;;;;20.00;99.90;;;;;;5071766;28;19924;-65
2022/05/22 10:04:06;;;;;;;;;;;20.10;99.90;;;;;;5071483;28;19935;-65
2022/05/22 10:06:37;;;;;;;;;;;20.40;99.90;;;;;;5071792;28;19924;-66
2022/05/22 10:09:11;;;;;;;;;;;20.80;99.90;;;;;;5088086;28;19928;-66
2022/05/22 10:11:42;;;;;;;;;;;21.10;99.90;;;;;;5071738;28;19924;-65
2022/05/22 10:14:24;;;;;;;;;;;21.20;99.90;;;;;;5071025;28;19925;-65
2022/05/22 10:17:01;;;;;;;;;;;21.00;99.90;;;;;;5071272;28;19925;-65
2022/05/22 10:19:35;;;;;;;;;;;20.90;99.90;;;;;;5070981;28;19924;-66
2022/05/22 10:22:05;;;;;;;;;;;20.70;99.90;;;;;;5071287;28;20281;-66
2022/05/22 10:24:40;;;;;;;;;;;20.90;99.90;;;;;;5070973;28;19924;-65
2022/05/22 10:27:15;;;;;;;;;;;20.90;99.90;;;;;;5071316;28;19924;-65
2022/05/22 10:29:44;;;;;;;;;;;20.80;99.90;;;;;;5070929;28;19924;-65
2022/05/22 10:32:15;;;;;;;;;;;20.80;99.90;;;;;;5070860;28;20374;-66
2022/05/22 10:34:48;;;;;;;;;;;20.70;99.90;;;;;;5070985;28;19925;-66
2022/05/22 10:37:19;;;;;;;;;;;20.40;99.90;;;;;;5095957;22;19932;-65
2022/05/22 10:39:46;;;;;;;;;;;20.40;99.90;;;;;;5052834;28;19932;-66
2022/05/22 10:45:04;;;;;;;;;;;20.60;99.90;;;;;;5071495;28;19959;-66
2022/05/22 10:47:33;;;;;;;;;;;20.90;99.90;;;;;;5054989;28;20361;-66
2022/05/22 10:50:00;;;;;;;;;;;21.10;99.90;;;;;;5071477;28;19968;-66
2022/05/22 10:52:30;;;;;;;;;;;21.40;99.90;;;;;;5072210;28;19975;-65
2022/05/22 10:54:58;;;;;;;;;;;21.70;99.90;;;;;;5070247;28;19925;-66
2022/05/22 10:57:26;;;;;;;;;;;21.70;99.90;;;;;;5070557;28;19970;-66
2022/05/22 10:59:53;;;;;;;;;;;21.70;99.90;;;;;;5070084;28;19963;-66
2022/05/22 11:02:22;;;;;;;;;;;21.90;99.90;;;;;;5070612;28;19975;-65
2022/05/22 11:04:51;;;;;;;;;;;21.90;99.90;;;;;;5070011;28;19924;-66
2022/05/22 11:07:28;;;;;;;;;;;22.00;99.90;;;;;;5070429;28;19968;-66
2022/05/22 11:09:56;;;;;;;;;;;22.40;99.90;;;;;;5069936;28;20332;-66
2022/05/22 11:12:23;;;;;;;;;;;22.60;99.90;;;;;;5070215;28;20019;-66
2022/05/22 11:14:50;;;;;;;;;;;23.00;99.90;;;;;;5071436;28;19983;-65
2022/05/22 11:17:18;;;;;;;;;;;23.40;99.90;;;;;;5070564;28;20023;-66
2022/05/22 11:19:46;;;;;;;;;;;23.40;99.90;;;;;;5070324;28;20023;-66
2022/05/22 11:22:21;;;;;;;;;;;23.50;99.90;;;;;;5070634;28;19982;-65
2022/05/22 11:24:51;;;;;;;;;;;23.60;99.90;;;;;;5070291;28;19981;-66
2022/05/22 11:27:24;;;;;;;;;;;23.70;99.90;;;;;;5070212;28;20016;-65
2022/05/22 11:29:58;;;;;;;;;;;23.80;99.90;;;;;;5070023;28;19956;-66
2022/05/22 11:32:34;;;;;;;;;;;24.00;99.90;;;;;;5070204;28;19967;-65
2022/05/22 11:35:16;;;;;;;;;;;24.90;99.90;;;;;;5069823;28;19925;-67
2022/05/22 11:37:54;;;;;;;;;;;25.80;99.90;;;;;;5070120;28;19935;-66
2022/05/22 11:40:23;;;;;;;;;;;26.60;99.90;;;;;;5070050;28;19975;-66
2022/05/22 11:42:52;;;;;;;;;;;27.50;99.90;;;;;;5069860;28;19978;-66
2022/05/22 11:45:32;;;;;;;;;;;28.10;99.90;;;;;;5069463;28;19978;-66
2022/05/22 11:48:09;;;;;;;;;;;29.10;99.90;;;;;;5070002;28;20487;-66
2022/05/22 11:50:39;;;;;;;;;;;29.80;99.90;;;;;;5069552;28;19929;-66
2022/05/22 11:53:13;;;;;;;;;;;30.80;99.90;;;;;;5069738;28;19925;-66
2022/05/22 11:55:49;;;;;;;;;;;31.50;99.90;;;;;;5069142;28;20357;-67
2022/05/22 11:58:21;;;;;;;;;;;32.10;99.90;;;;;;5069670;28;19974;-66
2022/05/22 12:00:53;;;;;;;;;;;32.20;99.90;;;;;;5069479;28;19929;-66
2022/05/22 12:03:34;;;;;;;;;;;32.60;99.90;;;;;;5069475;28;19925;-66
2022/05/22 12:06:07;;;;;;;;;;;32.80;99.90;;;;;;5069857;28;19924;-66
2022/05/22 12:08:50;;;;;;;;;;;32.70;99.90;;;;;;5069920;28;19924;-66
2022/05/22 12:11:22;;;;;;;;;;;32.90;99.90;;;;;;5069600;28;19924;-66
2022/05/22 12:13:52;;;;;;;;;;;32.40;99.90;;;;;;5086704;28;19925;-66
2022/05/22 12:16:21;;;;;;;;;;;32.50;99.90;;;;;;5086293;28;19960;-67
2022/05/22 12:19:01;;;;;;;;;;;33.30;99.90;;;;;;5086166;28;20453;-66
2022/05/22 12:21:35;;;;;;;;;;;33.50;99.90;;;;;;5086486;28;19928;-67
2022/05/22 12:24:07;;;;;;;;;;;32.90;99.90;;;;;;5086363;28;19928;-67
2022/05/22 12:26:35;;;;;;;;;;;33.80;99.90;;;;;;5086359;28;20354;-67
2022/05/22 12:29:05;;;;;;;;;;;33.90;99.90;;;;;;5085858;28;19978;-67
2022/05/22 12:31:34;;;;;;;;;;;34.30;99.90;;;;;;5086245;28;19935;-67
2022/05/22 12:34:04;;;;;;;;;;;34.60;99.90;;;;;;5068981;28;19924;-67
2022/05/22 12:36:31;;;;;;;;;;;35.10;99.90;;;;;;5086187;28;19936;-67
2022/05/22 12:39:01;;;;;;;;;;;35.50;99.90;;;;;;5085969;28;19924;-67
2022/05/22 12:41:38;;;;;;;;;;;35.80;99.90;;;;;;5086503;28;19939;-67
2022/05/22 12:44:06;;;;;;;;;;;35.30;99.90;;;;;;5086264;28;19977;-67
2022/05/22 12:46:33;;;;;;;;;;;34.20;99.90;;;;;;5069519;28;19924;-67
2022/05/22 12:49:06;;;;;;;;;;;33.70;99.90;;;;;;5085597;28;20411;-67
2022/05/22 12:51:34;;;;;;;;;;;34.00;99.90;;;;;;5086308;28;19952;-67
2022/05/22 12:54:08;;;;;;;;;;;34.30;99.90;;;;;;5070216;28;19924;-67
2022/05/22 12:56:39;;;;;;;;;;;35.40;99.90;;;;;;5069295;28;19964;-66
2022/05/22 12:59:17;;;;;;;;;;;35.10;99.80;;;;;;5085502;28;20018;-67
2022/05/22 13:01:45;;;;;;;;;;;34.00;99.50;;;;;;5086016;28;20354;-67
2022/05/22 13:04:22;;;;;;;;;;;33.90;99.40;;;;;;5085706;28;20351;-67
2022/05/22 13:06:50;;;;;;;;;;;34.40;99.40;;;;;;5086502;28;20023;-67
2022/05/22 13:09:22;;;;;;;;;;;34.80;99.50;;;;;;5073643;28;19925;-67
2022/05/22 13:11:53;;;;;;;;;;;35.40;98.70;;;;;;5075433;28;20014;-67
2022/05/22 13:14:23;;;;;;;;;;;35.30;98.70;;;;;;5052320;28;19925;-67
2022/05/22 13:16:51;;;;;;;;;;;35.70;98.70;;;;;;5052642;28;19925;-67
2022/05/22 13:19:20;;;;;;;;;;;35.90;98.70;;;;;;5052152;28;20351;-67
2022/05/22 13:21:47;;;;;;;;;;;36.60;98.80;;;;;;5052968;28;19978;-67
2022/05/22 13:24:24;;;;;;;;;;;37.00;99.60;;;;;;5051881;28;19983;-67
2022/05/22 13:26:57;;;;;;;;;;;37.70;98.50;;;;;;5052316;28;20445;-67
2022/05/22 13:29:26;;;;;;;;;;;37.30;98.20;;;;;;5051788;28;20126;-67
2022/05/22 13:31:56;;;;;;;;;;;37.20;98.60;;;;;;5052058;28;20370;-67
2022/05/22 13:34:27;;;;;;;;;;;37.30;98.60;;;;;;5051759;28;19946;-67
2022/05/22 13:36:56;;;;;;;;;;;37.20;98.30;;;;;;5051966;28;19928;-67
2022/05/22 13:39:30;;;;;;;;;;;37.00;97.70;;;;;;5051936;28;19925;-66
2022/05/22 13:42:13;;;;;;;;;;;36.10;97.80;;;;;;5052447;28;19929;-67
2022/05/22 13:44:54;;;;;;;;;;;35.90;97.90;;;;;;5051865;28;19933;-66
2022/05/22 13:47:30;;;;;;;;;;;35.70;98.10;;;;;;5051817;28;20355;-67
2022/05/22 13:52:47;;;;;;;;;;;35.90;97.70;;;;;;5050940;28;19921;-66
2022/05/22 13:55:15;;;;;;;;;;;35.80;97.60;;;;;;5068440;28;19952;-67
2022/05/22 13:57:53;;;;;;;;;;;35.90;97.20;;;;;;5051657;28;19936;-67
2022/05/22 14:00:22;;;;;;;;;;;36.30;97.40;;;;;;5051509;28;20362;-66
2022/05/22 14:02:51;;;;;;;;;;;36.00;96.30;;;;;;5051619;28;20011;-67
2022/05/22 14:05:19;;;;;;;;;;;35.90;96.80;;;;;;5051779;28;20335;-66
2022/05/22 14:07:48;;;;;;;;;;;35.70;96.50;;;;;;5051489;28;19924;-67
2022/05/22 14:10:17;;;;;;;;;;;36.10;97.10;;;;;;5052301;28;20019;-66
2022/05/22 14:12:46;;;;;;;;;;;36.80;95.90;;;;;;5088727;28;19931;-66
2022/05/22 14:15:19;;;;;;;;;;;36.80;96.30;;;;;;5071447;28;19925;-67
2022/05/22 14:17:46;;;;;;;;;;;37.20;95.90;;;;;;5088383;28;19928;-67
2022/05/22 14:20:15;;;;;;;;;;;37.50;95.70;;;;;;5087214;28;19929;-67
2022/05/22 14:22:43;;;;;;;;;;;37.40;95.00;;;;;;5088295;28;19928;-67
2022/05/22 14:25:10;;;;;;;;;;;37.60;95.20;;;;;;5088005;28;19924;-67
2022/05/22 14:27:39;;;;;;;;;;;37.80;95.50;;;;;;5088181;28;19925;-67
2022/05/22 14:30:13;;;;;;;;;;;37.70;94.40;;;;;;5087976;28;19929;-67
2022/05/22 14:32:42;;;;;;;;;;;37.10;94.50;;;;;;5088409;28;19928;-67
2022/05/22 14:35:13;;;;;;;;;;;36.70;94.50;;;;;;5070774;28;19925;-67
2022/05/22 14:37:40;;;;;;;;;;;36.70;94.80;;;;;;5087643;28;19931;-67
2022/05/22 14:40:14;;;;;;;;;;;37.00;94.20;;;;;;5070718;28;19924;-67
2022/05/22 14:42:44;;;;;;;;;;;36.90;94.10;;;;;;5088006;28;19924;-67
2022/05/22 14:45:17;;;;;;;;;;;37.20;93.50;;;;;;5087703;28;19970;-67
2022/05/22 14:47:46;;;;;;;;;;;37.20;93.80;;;;;;5088019;28;20034;-68
2022/05/22 14:50:16;;;;;;;;;;;37.70;93.50;;;;;;5070572;28;19924;-66
2022/05/22 14:52:48;;;;;;;;;;;37.80;93.30;;;;;;5070789;28;19924;-67
2022/05/22 14:55:16;;;;;;;;;;;37.30;92.80;;;;;;5087399;28;19928;-67
2022/05/22 14:57:45;;;;;;;;;;;37.50;93.20;;;;;;5087445;28;19931;-68
2022/05/22 15:00:14;;;;;;;;;;;37.50;93.60;;;;;;5070100;28;19939;-67
2022/05/22 15:02:43;;;;;;;;;;;36.80;92.60;;;;;;5087674;28;19932;-67
2022/05/22 15:05:13;;;;;;;;;;;36.50;92.90;;;;;;5087127;28;19931;-67
2022/05/22 15:07:49;;;;;;;;;;;35.30;93.10;;;;;;5087377;28;19931;-67
2022/05/22 15:10:22;;;;;;;;;;;35.20;92.60;;;;;;5085695;28;19943;-67